createdAt,value
2018-12-02T00:00:54.883Z,0.84
2018-12-02T00:15:51.522Z,0.80
2018-12-02T00:30:51.448Z,0.78
2018-12-02T00:45:52.678Z,0.62
2018-12-02T01:00:51.740Z,0.48
2018-12-02T01:15:52.564Z,0.36
2018-12-02T01:30:52.569Z,0.26
2018-12-02T01:45:51.385Z,0.17
2018-12-02T02:00:50.781Z,0.03
2018-12-02T02:15:50.887Z,0.03
2018-12-02T02:30:51.876Z,0.03
2018-12-02T02:45:51.570Z,-0.10
2018-12-02T03:00:51.011Z,-0.22
2018-12-02T03:15:50.930Z,-0.30
2018-12-02T03:30:52.819Z,-0.29
2018-12-02T03:45:51.715Z,-0.18
2018-12-02T04:00:51.131Z,-0.14
2018-12-02T04:15:51.020Z,-0.23
2018-12-02T04:30:51.083Z,-0.30
2018-12-02T04:45:52.836Z,-0.43
2018-12-02T05:00:50.761Z,-0.53
2018-12-02T05:15:51.240Z,-0.61
2018-12-02T05:30:51.150Z,-0.65
2018-12-02T05:45:51.016Z,-0.54
2018-12-02T06:00:51.870Z,-0.32
2018-12-02T06:15:50.874Z,-0.02
2018-12-02T06:30:50.755Z,0.74
2018-12-02T06:45:50.170Z,1.57
2018-12-02T07:15:50.469Z,4.56
2018-12-02T07:30:50.455Z,5.61
2018-12-02T07:45:50.838Z,6.31
2018-12-02T08:00:50.687Z,6.25
2018-12-02T08:15:50.535Z,7.12
2018-12-02T08:30:50.205Z,7.63
2018-12-02T08:45:50.962Z,7.88
2018-12-02T09:00:50.834Z,8.41
2018-12-02T09:15:50.814Z,8.69
2018-12-02T09:30:50.771Z,8.89
2018-12-02T09:45:51.158Z,9.18
2018-12-02T10:00:52.065Z,9.05
2018-12-02T10:15:52.442Z,8.86
2018-12-02T10:30:50.924Z,8.80
2018-12-02T10:45:51.370Z,8.76
2018-12-02T11:00:58.371Z,13.41
2018-12-02T11:45:48.866Z,10.25
2018-12-02T12:00:52.818Z,10.75
2018-12-02T12:15:50.629Z,9.33
2018-12-02T12:30:50.534Z,8.27
2018-12-02T12:45:50.797Z,7.57
2018-12-02T13:00:50.846Z,7.22
2018-12-02T13:15:50.526Z,7.09
2018-12-02T13:30:50.522Z,6.83
2018-12-02T13:45:51.763Z,6.48
2018-12-02T14:00:50.858Z,5.82
2018-12-02T14:15:55.730Z,5.36
2018-12-02T14:30:50.732Z,4.97
2018-12-02T14:45:51.078Z,4.67
2018-12-02T15:00:50.836Z,4.41
2018-12-02T15:15:51.181Z,4.15
2018-12-02T15:30:50.907Z,3.91
2018-12-02T15:45:53.285Z,3.65
2018-12-02T16:00:51.275Z,3.43
2018-12-02T16:15:54.506Z,3.29
2018-12-02T16:30:53.998Z,3.13
2018-12-02T16:45:50.015Z,3.06
2018-12-02T17:00:57.422Z,2.99
2018-12-02T17:15:49.898Z,2.83
2018-12-02T17:30:57.280Z,2.74
2018-12-02T17:45:51.707Z,2.61
2018-12-02T18:00:50.447Z,2.55
2018-12-02T18:15:50.566Z,2.46
2018-12-02T18:30:53.533Z,2.36
2018-12-02T19:45:58.997Z,1.84
2018-12-02T20:00:56.601Z,1.58
2018-12-02T20:45:56.124Z,1.70
2018-12-02T21:00:53.439Z,1.63
2018-12-02T21:15:51.341Z,1.62
2018-12-02T21:30:51.396Z,1.58
2018-12-02T21:45:50.614Z,1.49
2018-12-02T22:00:55.540Z,1.32
2018-12-02T22:15:56.634Z,1.26
2018-12-02T22:30:53.514Z,1.30
2018-12-02T22:45:52.785Z,1.28
2018-12-02T23:00:55.958Z,1.24
2018-12-02T23:15:53.773Z,1.12
2018-12-02T23:30:52.156Z,0.98
2018-12-02T23:45:52.949Z,1.04
